createdAt,value
2022-11-07T00:00:22.312Z,938.36
2022-11-07T00:01:22.326Z,938.32
2022-11-07T00:02:22.455Z,938.37
2022-11-07T00:03:22.352Z,938.39
2022-11-07T00:04:22.365Z,938.41
2022-11-07T00:05:22.382Z,938.39
2022-11-07T00:06:22.392Z,938.43
2022-11-07T00:07:22.405Z,938.44
2022-11-07T00:08:22.437Z,938.43
2022-11-07T00:09:22.431Z,938.45
2022-11-07T00:10:22.452Z,938.44
2022-11-07T00:11:22.455Z,938.42
2022-11-07T00:12:22.467Z,938.45
2022-11-07T00:13:22.481Z,938.41
2022-11-07T00:14:22.499Z,938.47
2022-11-07T00:15:22.510Z,938.49
2022-11-07T00:16:22.522Z,938.48
2022-11-07T00:17:22.535Z,938.50
2022-11-07T00:18:22.544Z,938.56
2022-11-07T00:19:22.562Z,938.56
2022-11-07T00:20:22.574Z,938.56
2022-11-07T00:21:22.586Z,938.58
2022-11-07T00:22:22.600Z,938.61
2022-11-07T00:23:22.612Z,938.58
2022-11-07T00:24:22.731Z,938.61
2022-11-07T00:25:22.637Z,938.57
2022-11-07T00:26:22.653Z,938.56
2022-11-07T00:27:22.727Z,938.58
2022-11-07T00:28:22.675Z,938.60
2022-11-07T00:29:22.689Z,938.55
2022-11-07T00:30:22.703Z,938.60
2022-11-07T00:31:22.716Z,938.52
2022-11-07T00:32:22.729Z,938.53
2022-11-07T00:33:22.742Z,938.54
2022-11-07T00:34:22.756Z,938.53
2022-11-07T00:35:22.766Z,938.53
2022-11-07T00:36:22.780Z,938.52
2022-11-07T00:37:22.793Z,938.50
2022-11-07T00:38:22.811Z,938.49
2022-11-07T00:39:22.818Z,938.50
2022-11-07T00:40:22.850Z,938.50
2022-11-07T00:41:22.846Z,938.48
2022-11-07T00:42:22.859Z,938.53
2022-11-07T00:43:22.871Z,938.51
2022-11-07T00:44:22.890Z,938.55
2022-11-07T00:45:22.896Z,938.60
2022-11-07T00:46:22.910Z,938.60
2022-11-07T00:47:22.921Z,938.66
2022-11-07T00:48:22.937Z,938.66
2022-11-07T00:49:22.946Z,938.66
2022-11-07T00:50:22.963Z,938.71
2022-11-07T00:51:22.973Z,938.69
2022-11-07T00:52:22.987Z,938.72
2022-11-07T00:53:23.000Z,938.69
2022-11-07T00:54:23.012Z,938.74
2022-11-07T00:55:23.025Z,938.70
2022-11-07T00:56:23.058Z,938.66
2022-11-07T00:57:23.050Z,938.70
2022-11-07T00:58:23.064Z,938.70
2022-11-07T00:59:23.078Z,938.71
2022-11-07T01:00:23.089Z,938.68
2022-11-07T01:01:23.256Z,938.70
2022-11-07T01:02:23.312Z,938.68
2022-11-07T01:03:23.129Z,938.67
2022-11-07T01:04:23.144Z,938.71
2022-11-07T01:05:23.155Z,938.74
2022-11-07T01:06:23.167Z,938.70
2022-11-07T01:07:23.181Z,938.68
2022-11-07T01:08:23.193Z,938.64
2022-11-07T01:09:23.207Z,938.68
2022-11-07T01:10:23.220Z,938.70
2022-11-07T01:11:23.233Z,938.73
2022-11-07T01:12:23.264Z,938.73
2022-11-07T01:13:23.262Z,938.76
2022-11-07T01:14:23.270Z,938.80
2022-11-07T01:15:23.286Z,938.77
2022-11-07T01:16:23.299Z,938.77
2022-11-07T01:17:23.311Z,938.78
2022-11-07T01:18:23.322Z,938.73
2022-11-07T01:19:23.337Z,938.75
2022-11-07T01:20:23.349Z,938.74
2022-11-07T01:21:23.363Z,938.70
2022-11-07T01:22:23.375Z,938.67
2022-11-07T01:23:23.390Z,938.65
2022-11-07T01:24:23.401Z,938.64
2022-11-07T01:25:23.412Z,938.69
2022-11-07T01:26:23.424Z,938.72
2022-11-07T01:27:23.440Z,938.72
2022-11-07T01:28:23.681Z,938.70
2022-11-07T01:29:23.466Z,938.71
2022-11-07T01:30:23.476Z,938.73
2022-11-07T01:31:23.491Z,938.74
2022-11-07T01:32:23.504Z,938.74
2022-11-07T01:33:23.516Z,938.67
2022-11-07T01:34:23.530Z,938.68
2022-11-07T01:35:23.546Z,938.67
2022-11-07T01:36:23.556Z,938.67
2022-11-07T01:37:23.568Z,938.68
2022-11-07T01:38:23.579Z,938.65
2022-11-07T01:39:23.593Z,938.65
2022-11-07T01:40:23.607Z,938.58
2022-11-07T01:41:23.619Z,938.54
2022-11-07T01:42:23.633Z,938.50
2022-11-07T01:43:23.646Z,938.46
2022-11-07T01:44:23.676Z,938.39
2022-11-07T01:45:23.670Z,938.36
2022-11-07T01:46:23.685Z,938.38
2022-11-07T01:47:23.697Z,938.38
2022-11-07T01:48:23.710Z,938.33
2022-11-07T01:49:23.720Z,938.31
2022-11-07T01:50:24.873Z,938.33
2022-11-07T01:51:23.748Z,938.32
2022-11-07T01:52:23.764Z,938.31
2022-11-07T01:53:23.773Z,938.31
2022-11-07T01:54:23.787Z,938.31
2022-11-07T01:55:23.799Z,938.27
2022-11-07T01:56:23.813Z,938.30
2022-11-07T01:57:23.825Z,938.25
2022-11-07T01:58:23.838Z,938.27
2022-11-07T01:59:23.848Z,938.22
2022-11-07T02:00:24.026Z,938.20
2022-11-07T02:01:24.032Z,938.17
2022-11-07T02:02:24.089Z,938.16
2022-11-07T02:03:23.901Z,938.12
2022-11-07T02:04:23.914Z,938.06
2022-11-07T02:05:23.927Z,938.08
2022-11-07T02:06:23.941Z,938.02
2022-11-07T02:07:23.957Z,938.03
2022-11-07T02:08:23.969Z,938.03
2022-11-07T02:09:23.980Z,938.05
2022-11-07T02:10:23.992Z,938.11
2022-11-07T02:11:24.002Z,938.15
2022-11-07T02:12:24.016Z,938.19
2022-11-07T02:13:24.031Z,938.20
2022-11-07T02:14:24.041Z,938.17
2022-11-07T02:15:24.058Z,938.15
2022-11-07T02:16:24.087Z,938.13
2022-11-07T02:17:24.081Z,938.09
2022-11-07T02:18:24.093Z,938.10
2022-11-07T02:19:24.105Z,938.07
2022-11-07T02:20:24.121Z,938.04
2022-11-07T02:21:24.132Z,938.05
2022-11-07T02:22:24.146Z,938.06
2022-11-07T02:23:24.159Z,938.02
2022-11-07T02:24:24.170Z,938.01
2022-11-07T02:25:24.187Z,938.08
2022-11-07T02:26:24.198Z,938.01
2022-11-07T02:27:24.208Z,937.98
2022-11-07T02:28:24.225Z,938.01
2022-11-07T02:29:24.234Z,937.97
2022-11-07T02:30:24.245Z,937.94
2022-11-07T02:31:24.258Z,937.93
2022-11-07T02:32:24.395Z,937.93
2022-11-07T02:33:24.284Z,937.94
2022-11-07T02:34:24.297Z,937.93
2022-11-07T02:35:24.313Z,937.93
2022-11-07T02:36:24.325Z,937.91
2022-11-07T02:37:24.335Z,937.88
2022-11-07T02:38:24.351Z,937.83
2022-11-07T02:39:24.362Z,937.81
2022-11-07T02:40:24.375Z,937.80
2022-11-07T02:41:24.386Z,937.78
2022-11-07T02:42:24.400Z,937.76
2022-11-07T02:43:24.414Z,937.73
2022-11-07T02:44:24.426Z,937.71
2022-11-07T02:45:24.441Z,937.68
2022-11-07T02:46:24.451Z,937.68
2022-11-07T02:47:24.465Z,937.67
2022-11-07T02:48:24.498Z,937.60
2022-11-07T02:49:24.491Z,937.61
2022-11-07T02:50:24.503Z,937.60
2022-11-07T02:51:24.516Z,937.51
2022-11-07T02:52:24.534Z,937.50
2022-11-07T02:53:24.540Z,937.45
2022-11-07T02:54:24.552Z,937.44
2022-11-07T02:55:24.566Z,937.35
2022-11-07T02:56:24.580Z,937.38
2022-11-07T02:57:24.591Z,937.35
2022-11-07T02:58:24.606Z,937.35
2022-11-07T02:59:27.200Z,937.34
2022-11-07T03:00:24.630Z,937.36
2022-11-07T03:01:24.777Z,937.39
2022-11-07T03:02:24.835Z,937.41
2022-11-07T03:03:24.668Z,937.45
2022-11-07T03:04:24.715Z,937.49
2022-11-07T03:05:24.696Z,937.52
2022-11-07T03:06:24.707Z,937.51
2022-11-07T03:07:24.719Z,937.49
2022-11-07T03:08:24.733Z,937.52
2022-11-07T03:09:24.744Z,937.50
2022-11-07T03:10:24.758Z,937.45
2022-11-07T03:11:24.772Z,937.44
2022-11-07T03:12:24.783Z,937.40
2022-11-07T03:13:24.794Z,937.39
2022-11-07T03:14:24.844Z,937.38
2022-11-07T03:15:24.821Z,937.37
2022-11-07T03:16:24.835Z,937.35
2022-11-07T03:17:24.845Z,937.35
2022-11-07T03:18:24.857Z,937.30
2022-11-07T03:19:24.873Z,937.25
2022-11-07T03:20:24.903Z,937.27
2022-11-07T03:21:24.897Z,937.32
2022-11-07T03:22:24.908Z,937.31
2022-11-07T03:23:24.922Z,937.21
2022-11-07T03:24:24.940Z,937.20
2022-11-07T03:25:24.947Z,937.21
2022-11-07T03:26:24.962Z,937.10
2022-11-07T03:27:24.974Z,937.08
2022-11-07T03:28:24.985Z,936.99
2022-11-07T03:29:24.999Z,936.94
2022-11-07T03:30:25.011Z,936.84
2022-11-07T03:31:25.024Z,936.86
2022-11-07T03:32:25.038Z,936.87
2022-11-07T03:33:25.049Z,936.87
2022-11-07T03:34:25.061Z,936.90
2022-11-07T03:35:25.077Z,936.89
2022-11-07T03:36:25.107Z,936.85
2022-11-07T03:37:25.098Z,936.84
2022-11-07T03:38:25.112Z,936.81
2022-11-07T03:39:26.058Z,936.90
2022-11-07T03:40:25.145Z,936.93
2022-11-07T03:41:25.151Z,936.94
2022-11-07T03:42:25.174Z,936.96
2022-11-07T03:43:25.178Z,936.97
2022-11-07T03:44:25.192Z,936.93
2022-11-07T03:45:25.203Z,936.91
2022-11-07T03:46:25.215Z,936.90
2022-11-07T03:47:25.228Z,936.82
2022-11-07T03:48:25.241Z,936.81
2022-11-07T03:49:25.253Z,936.75
2022-11-07T03:50:25.266Z,936.75
2022-11-07T03:51:25.380Z,936.71
2022-11-07T03:52:25.405Z,936.72
2022-11-07T03:53:26.253Z,936.65
2022-11-07T03:54:25.318Z,936.64
2022-11-07T03:55:25.329Z,936.62
2022-11-07T03:56:25.344Z,936.64
2022-11-07T03:57:25.355Z,936.65
2022-11-07T03:58:25.367Z,936.70
2022-11-07T03:59:25.381Z,936.68
2022-11-07T04:00:25.394Z,936.65
2022-11-07T04:01:25.610Z,936.64
2022-11-07T04:02:25.603Z,936.64
2022-11-07T04:03:25.430Z,936.56
2022-11-07T04:04:25.444Z,936.54
2022-11-07T04:05:25.457Z,936.49
2022-11-07T04:06:25.467Z,936.41
2022-11-07T04:07:25.483Z,936.37
2022-11-07T04:08:25.515Z,936.34
2022-11-07T04:09:25.505Z,936.27
2022-11-07T04:10:25.519Z,936.25
2022-11-07T04:11:25.534Z,936.23
2022-11-07T04:12:25.544Z,936.23
2022-11-07T04:13:25.558Z,936.26
2022-11-07T04:14:25.569Z,936.26
2022-11-07T04:15:25.593Z,936.26
2022-11-07T04:16:25.594Z,936.27
2022-11-07T04:17:25.608Z,936.29
2022-11-07T04:18:25.623Z,936.30
2022-11-07T04:19:25.634Z,936.31
2022-11-07T04:20:25.646Z,936.28
2022-11-07T04:21:25.659Z,936.27
2022-11-07T04:22:25.672Z,936.25
2022-11-07T04:23:25.685Z,936.20
2022-11-07T04:24:25.717Z,936.15
2022-11-07T04:25:25.710Z,936.16
2022-11-07T04:26:25.723Z,936.14
2022-11-07T04:27:25.736Z,936.13
2022-11-07T04:28:25.748Z,936.09
2022-11-07T04:29:25.759Z,936.09
2022-11-07T04:30:25.772Z,936.08
2022-11-07T04:31:25.786Z,936.06
2022-11-07T04:32:25.799Z,936.06
2022-11-07T04:33:25.811Z,936.03
2022-11-07T04:34:25.823Z,936.03
2022-11-07T04:35:25.836Z,936.08
2022-11-07T04:36:25.851Z,936.03
2022-11-07T04:37:25.860Z,936.05
2022-11-07T04:38:25.874Z,936.02
2022-11-07T04:39:25.892Z,936.01
2022-11-07T04:40:25.989Z,936.02
2022-11-07T04:41:25.916Z,935.99
2022-11-07T04:42:25.927Z,935.95
2022-11-07T04:43:25.939Z,935.96
2022-11-07T04:44:25.950Z,935.93
2022-11-07T04:45:25.962Z,935.95
2022-11-07T04:46:25.975Z,935.95
2022-11-07T04:47:25.989Z,935.96
2022-11-07T04:48:26.002Z,935.91
2022-11-07T04:49:26.013Z,935.90
2022-11-07T04:50:26.025Z,935.87
2022-11-07T04:51:26.037Z,935.90
2022-11-07T04:52:26.053Z,935.89
2022-11-07T04:53:26.062Z,935.87
2022-11-07T04:54:26.075Z,935.88
2022-11-07T04:55:26.088Z,935.84
2022-11-07T04:56:29.425Z,935.82
2022-11-07T04:57:26.114Z,935.81
2022-11-07T04:58:26.125Z,935.79
2022-11-07T04:59:26.140Z,935.76
2022-11-07T05:00:26.153Z,935.75
2022-11-07T05:01:26.201Z,935.75
2022-11-07T05:02:26.388Z,935.72
2022-11-07T05:03:26.189Z,935.74
2022-11-07T05:04:26.201Z,935.69
2022-11-07T05:05:26.216Z,935.68
2022-11-07T05:06:26.225Z,935.66
2022-11-07T05:07:26.242Z,935.69
2022-11-07T05:08:26.251Z,935.67
2022-11-07T05:09:26.268Z,935.67
2022-11-07T05:10:26.279Z,935.70
2022-11-07T05:11:26.291Z,935.70
2022-11-07T05:12:26.321Z,935.68
2022-11-07T05:13:26.315Z,935.68
2022-11-07T05:14:26.327Z,935.68
2022-11-07T05:15:26.340Z,935.64
2022-11-07T05:16:26.352Z,935.62
2022-11-07T05:17:28.103Z,935.61
2022-11-07T05:18:26.379Z,935.56
2022-11-07T05:19:26.389Z,935.60
2022-11-07T05:20:26.404Z,935.60
2022-11-07T05:21:26.413Z,935.57
2022-11-07T05:22:26.428Z,935.59
2022-11-07T05:23:26.440Z,935.57
2022-11-07T05:24:26.454Z,935.60
2022-11-07T05:25:26.472Z,935.56
2022-11-07T05:26:26.486Z,935.61
2022-11-07T05:27:26.495Z,935.55
2022-11-07T05:28:35.294Z,935.58
2022-11-07T05:29:26.516Z,935.51
2022-11-07T05:30:26.529Z,935.48
2022-11-07T05:31:26.541Z,935.46
2022-11-07T05:32:26.556Z,935.40
2022-11-07T05:33:26.569Z,935.42
2022-11-07T05:34:26.578Z,935.39
2022-11-07T05:35:26.593Z,935.45
2022-11-07T05:36:26.608Z,935.44
2022-11-07T05:37:26.616Z,935.41
2022-11-07T05:38:26.630Z,935.45
2022-11-07T05:39:26.641Z,935.48
2022-11-07T05:40:26.657Z,935.48
2022-11-07T05:41:26.674Z,935.49
2022-11-07T05:42:26.681Z,935.49
2022-11-07T05:43:26.692Z,935.50
2022-11-07T05:44:26.726Z,935.51
2022-11-07T05:45:26.717Z,935.56
2022-11-07T05:46:26.731Z,935.54
2022-11-07T05:47:26.744Z,935.58
2022-11-07T05:48:26.757Z,935.59
2022-11-07T05:49:26.771Z,935.58
2022-11-07T05:50:26.779Z,935.55
2022-11-07T05:51:26.792Z,935.55
2022-11-07T05:52:26.807Z,935.54
2022-11-07T05:53:26.904Z,935.50
2022-11-07T05:54:26.830Z,935.46
2022-11-07T05:55:26.844Z,935.44
2022-11-07T05:56:26.856Z,935.41
2022-11-07T05:57:26.870Z,935.40
2022-11-07T05:58:26.880Z,935.35
2022-11-07T05:59:26.896Z,935.35
2022-11-07T06:00:27.064Z,935.35
2022-11-07T06:01:26.981Z,935.34
2022-11-07T06:02:27.013Z,935.32
2022-11-07T06:03:26.944Z,935.35
2022-11-07T06:04:26.964Z,935.33
2022-11-07T06:05:26.968Z,935.34
2022-11-07T06:06:26.982Z,935.33
2022-11-07T06:07:26.994Z,935.28
2022-11-07T06:08:27.010Z,935.31
2022-11-07T06:09:27.020Z,935.33
2022-11-07T06:10:27.032Z,935.33
2022-11-07T06:11:27.045Z,935.29
2022-11-07T06:12:27.056Z,935.29
2022-11-07T06:13:27.074Z,935.27
2022-11-07T06:14:27.082Z,935.28
2022-11-07T06:15:27.097Z,935.33
2022-11-07T06:16:27.127Z,935.36
2022-11-07T06:17:27.119Z,935.32
2022-11-07T06:18:27.131Z,935.33
2022-11-07T06:19:27.144Z,935.34
2022-11-07T06:20:27.158Z,935.33
2022-11-07T06:21:27.173Z,935.34
2022-11-07T06:22:27.182Z,935.30
2022-11-07T06:23:27.193Z,935.33
2022-11-07T06:24:27.207Z,935.30
2022-11-07T06:25:27.220Z,935.33
2022-11-07T06:26:27.233Z,935.36
2022-11-07T06:27:27.244Z,935.37
2022-11-07T06:28:27.257Z,935.39
2022-11-07T06:29:27.271Z,935.40
2022-11-07T06:30:27.283Z,935.38
2022-11-07T06:31:27.294Z,935.38
2022-11-07T06:32:27.328Z,935.37
2022-11-07T06:33:27.326Z,935.37
2022-11-07T06:34:27.334Z,935.39
2022-11-07T06:35:27.343Z,935.40
2022-11-07T06:36:27.363Z,935.43
2022-11-07T06:37:27.373Z,935.39
2022-11-07T06:38:27.385Z,935.38
2022-11-07T06:39:27.395Z,935.36
2022-11-07T06:40:27.409Z,935.37
2022-11-07T06:41:27.419Z,935.38
2022-11-07T06:42:27.432Z,935.33
2022-11-07T06:43:27.445Z,935.31
2022-11-07T06:44:27.458Z,935.31
2022-11-07T06:45:27.471Z,935.28
2022-11-07T06:46:27.483Z,935.28
2022-11-07T06:47:27.496Z,935.27
2022-11-07T06:48:27.526Z,935.32
2022-11-07T06:49:27.520Z,935.32
2022-11-07T06:50:27.532Z,935.32
2022-11-07T06:51:27.546Z,935.35
2022-11-07T06:52:27.558Z,935.34
2022-11-07T06:53:27.571Z,935.36
2022-11-07T06:54:27.581Z,935.32
2022-11-07T06:55:27.594Z,935.36
2022-11-07T06:56:27.609Z,935.35
2022-11-07T06:57:27.620Z,935.35
2022-11-07T06:58:27.634Z,935.36
2022-11-07T06:59:27.646Z,935.34
2022-11-07T07:00:27.743Z,935.32
2022-11-07T07:01:27.841Z,935.35
2022-11-07T07:02:52.116Z,935.31
2022-11-07T07:03:27.696Z,935.28
2022-11-07T07:04:27.815Z,935.23
2022-11-07T07:05:27.721Z,935.23
2022-11-07T07:06:27.735Z,935.24
2022-11-07T07:07:27.749Z,935.22
2022-11-07T07:08:27.758Z,935.24
2022-11-07T07:09:27.772Z,935.25
2022-11-07T07:10:27.784Z,935.30
2022-11-07T07:11:27.799Z,935.30
2022-11-07T07:12:27.810Z,935.32
2022-11-07T07:13:27.821Z,935.32
2022-11-07T07:14:27.833Z,935.34
2022-11-07T07:15:27.846Z,935.29
2022-11-07T07:16:27.860Z,935.28
2022-11-07T07:17:27.877Z,935.33
2022-11-07T07:18:27.885Z,935.27
2022-11-07T07:19:27.903Z,935.27
2022-11-07T07:20:28.043Z,935.26
2022-11-07T07:21:27.920Z,935.25
2022-11-07T07:22:27.957Z,935.22
2022-11-07T07:23:27.962Z,935.23
2022-11-07T07:24:27.961Z,935.30
2022-11-07T07:25:27.974Z,935.33
2022-11-07T07:26:27.985Z,935.36
2022-11-07T07:27:28.002Z,935.37
2022-11-07T07:28:28.110Z,935.29
2022-11-07T07:29:28.027Z,935.34
2022-11-07T07:30:28.040Z,935.36
2022-11-07T07:31:28.063Z,935.35
2022-11-07T07:32:28.068Z,935.35
2022-11-07T07:33:28.073Z,935.36
2022-11-07T07:34:28.085Z,935.41
2022-11-07T07:35:28.108Z,935.38
2022-11-07T07:36:28.223Z,935.43
2022-11-07T07:37:28.121Z,935.46
2022-11-07T07:38:28.136Z,935.50
2022-11-07T07:39:28.147Z,935.54
2022-11-07T07:40:28.160Z,935.58
2022-11-07T07:41:28.172Z,935.57
2022-11-07T07:42:28.184Z,935.59
2022-11-07T07:43:28.197Z,935.62
2022-11-07T07:44:28.211Z,935.64
2022-11-07T07:45:28.221Z,935.65
2022-11-07T07:46:28.232Z,935.66
2022-11-07T07:47:28.245Z,935.64
2022-11-07T07:48:28.260Z,935.64
2022-11-07T07:49:28.279Z,935.60
2022-11-07T07:50:28.367Z,935.58
2022-11-07T07:51:28.297Z,935.58
2022-11-07T07:52:28.425Z,935.58
2022-11-07T07:53:28.318Z,935.55
2022-11-07T07:54:28.334Z,935.53
2022-11-07T07:55:28.346Z,935.52
2022-11-07T07:56:28.460Z,935.55
2022-11-07T07:57:28.371Z,935.53
2022-11-07T07:58:28.382Z,935.50
2022-11-07T07:59:28.405Z,935.49
2022-11-07T08:00:28.470Z,935.47
2022-11-07T08:01:28.544Z,935.48
2022-11-07T08:02:28.497Z,935.50
2022-11-07T08:03:32.040Z,935.50
2022-11-07T08:04:28.460Z,935.54
2022-11-07T08:05:28.471Z,935.50
2022-11-07T08:06:28.481Z,935.53
2022-11-07T08:07:28.494Z,935.54
2022-11-07T08:08:30.505Z,935.60
2022-11-07T08:09:28.520Z,935.62
2022-11-07T08:10:41.931Z,935.64
2022-11-07T08:11:28.548Z,935.67
2022-11-07T08:12:28.559Z,935.70
2022-11-07T08:13:28.569Z,935.71
2022-11-07T08:14:28.601Z,935.72
2022-11-07T08:15:28.595Z,935.76
2022-11-07T08:16:28.611Z,935.76
2022-11-07T08:17:28.620Z,935.69
2022-11-07T08:18:28.632Z,935.73
2022-11-07T08:19:28.652Z,935.71
2022-11-07T08:20:28.656Z,935.74
2022-11-07T08:21:28.668Z,935.72
2022-11-07T08:22:28.681Z,935.76
2022-11-07T08:23:28.694Z,935.79
2022-11-07T08:24:28.824Z,935.79
2022-11-07T08:25:28.718Z,935.86
2022-11-07T08:26:28.735Z,935.86
2022-11-07T08:27:28.744Z,935.86
2022-11-07T08:28:28.757Z,935.87
2022-11-07T08:29:28.774Z,935.91
2022-11-07T08:30:28.782Z,935.88
2022-11-07T08:31:28.796Z,935.91
2022-11-07T08:32:28.806Z,935.96
2022-11-07T08:33:28.855Z,935.94
2022-11-07T08:34:28.829Z,935.96
2022-11-07T08:35:28.843Z,935.97
2022-11-07T08:36:28.858Z,935.98
2022-11-07T08:37:28.871Z,936.01
2022-11-07T08:38:28.881Z,935.97
2022-11-07T08:39:28.894Z,935.96
2022-11-07T08:40:28.944Z,935.92
2022-11-07T08:41:28.917Z,935.92
2022-11-07T08:42:28.932Z,935.92
2022-11-07T08:43:28.945Z,935.89
2022-11-07T08:44:29.159Z,935.92
2022-11-07T08:45:28.972Z,935.95
2022-11-07T08:46:28.983Z,935.98
2022-11-07T08:47:29.000Z,935.97
2022-11-07T08:48:29.008Z,935.99
2022-11-07T08:49:29.019Z,936.00
2022-11-07T08:50:29.033Z,936.00
2022-11-07T08:51:29.043Z,936.00
2022-11-07T08:52:29.057Z,936.03
2022-11-07T08:53:29.066Z,936.03
2022-11-07T08:54:29.078Z,936.08
2022-11-07T08:55:29.093Z,936.07
2022-11-07T08:56:29.124Z,936.12
2022-11-07T08:57:29.118Z,936.15
2022-11-07T08:58:30.335Z,936.22
2022-11-07T08:59:29.141Z,936.24
2022-11-07T09:00:29.155Z,936.28
2022-11-07T09:01:29.365Z,936.26
2022-11-07T09:03:18.283Z,936.27
2022-11-07T09:03:48.572Z,936.26
2022-11-07T09:04:29.270Z,936.28
2022-11-07T09:05:29.219Z,936.33
2022-11-07T09:06:29.230Z,936.35
2022-11-07T09:07:29.243Z,936.39
2022-11-07T09:08:29.259Z,936.44
2022-11-07T09:09:29.265Z,936.48
2022-11-07T09:10:29.278Z,936.46
2022-11-07T09:11:29.290Z,936.48
2022-11-07T09:12:29.331Z,936.46
2022-11-07T09:13:29.315Z,936.50
2022-11-07T09:14:29.331Z,936.51
2022-11-07T09:15:29.342Z,936.49
2022-11-07T09:16:29.357Z,936.52
2022-11-07T09:17:29.366Z,936.52
2022-11-07T09:18:29.377Z,936.54
2022-11-07T09:19:29.391Z,936.52
2022-11-07T09:20:29.404Z,936.56
2022-11-07T09:21:29.418Z,936.56
2022-11-07T09:22:29.430Z,936.58
2022-11-07T09:23:29.443Z,936.55
2022-11-07T09:24:29.454Z,936.55
2022-11-07T09:25:29.465Z,936.61
2022-11-07T09:26:29.478Z,936.62
2022-11-07T09:27:29.491Z,936.63
2022-11-07T09:28:29.587Z,936.64
2022-11-07T09:29:29.516Z,936.61
2022-11-07T09:30:29.528Z,936.66
2022-11-07T09:31:29.540Z,936.67
2022-11-07T09:32:45.674Z,936.67
2022-11-07T09:33:29.563Z,936.69
2022-11-07T09:34:29.577Z,936.73
2022-11-07T09:35:29.592Z,936.74
2022-11-07T09:36:29.601Z,936.73
2022-11-07T09:37:29.614Z,936.76
2022-11-07T09:38:29.627Z,936.80
2022-11-07T09:39:29.671Z,936.86
2022-11-07T09:40:29.651Z,936.89
2022-11-07T09:41:29.664Z,936.91
2022-11-07T09:42:29.676Z,936.91
2022-11-07T09:43:29.689Z,936.94
2022-11-07T09:44:33.264Z,936.97
2022-11-07T09:45:29.730Z,936.97
2022-11-07T09:46:29.727Z,937.03
2022-11-07T09:47:29.739Z,936.98
2022-11-07T09:48:29.750Z,937.02
2022-11-07T09:49:29.764Z,937.06
2022-11-07T09:50:29.776Z,937.05
2022-11-07T09:51:29.790Z,937.06
2022-11-07T09:52:29.803Z,937.07
2022-11-07T09:53:29.814Z,937.07
2022-11-07T09:54:29.830Z,937.07
2022-11-07T09:55:29.838Z,937.07
2022-11-07T09:56:29.854Z,937.07
2022-11-07T09:57:29.861Z,937.08
2022-11-07T09:58:29.875Z,937.11
2022-11-07T09:59:29.887Z,937.10
2022-11-07T10:00:29.992Z,937.15
2022-11-07T10:01:30.001Z,937.16
2022-11-07T10:02:30.004Z,937.16
2022-11-07T10:03:29.935Z,937.22
2022-11-07T10:04:29.948Z,937.21
2022-11-07T10:05:29.962Z,937.26
2022-11-07T10:06:29.975Z,937.28
2022-11-07T10:07:29.984Z,937.28
2022-11-07T10:08:30.000Z,937.29
2022-11-07T10:09:30.010Z,937.34
2022-11-07T10:10:30.037Z,937.33
2022-11-07T10:11:30.037Z,937.35
2022-11-07T10:12:30.049Z,937.38
2022-11-07T10:13:30.063Z,937.37
2022-11-07T10:14:30.077Z,937.36
2022-11-07T10:15:30.085Z,937.38
2022-11-07T10:16:30.120Z,937.37
2022-11-07T10:17:30.108Z,937.37
2022-11-07T10:18:30.122Z,937.41
2022-11-07T10:19:30.135Z,937.44
2022-11-07T10:20:30.194Z,937.45
2022-11-07T10:21:37.551Z,937.45
2022-11-07T10:22:30.171Z,937.45
2022-11-07T10:23:30.186Z,937.49
2022-11-07T10:24:30.198Z,937.48
2022-11-07T10:25:30.209Z,937.47
2022-11-07T10:26:30.219Z,937.47
2022-11-07T10:27:32.851Z,937.49
2022-11-07T10:28:30.247Z,937.48
2022-11-07T10:29:30.256Z,937.48
2022-11-07T10:30:30.270Z,937.48
2022-11-07T10:31:30.283Z,937.51
2022-11-07T10:32:30.314Z,937.53
2022-11-07T10:33:30.319Z,937.52
2022-11-07T10:34:30.319Z,937.54
2022-11-07T10:35:30.339Z,937.55
2022-11-07T10:36:30.346Z,937.52
2022-11-07T10:37:30.359Z,937.49
2022-11-07T10:38:30.377Z,937.51
2022-11-07T10:39:30.381Z,937.53
2022-11-07T10:40:30.400Z,937.53
2022-11-07T10:41:30.408Z,937.58
2022-11-07T10:42:30.418Z,937.62
2022-11-07T10:43:30.430Z,937.58
2022-11-07T10:44:30.447Z,937.62
2022-11-07T10:45:30.455Z,937.60
2022-11-07T10:46:30.467Z,937.64
2022-11-07T10:47:30.481Z,937.63
2022-11-07T10:48:30.513Z,937.66
2022-11-07T10:49:30.505Z,937.60
2022-11-07T10:50:30.517Z,937.59
2022-11-07T10:51:30.530Z,937.62
2022-11-07T10:52:30.543Z,937.64
2022-11-07T10:53:30.554Z,937.67
2022-11-07T10:54:30.571Z,937.66
2022-11-07T10:55:30.577Z,937.64
2022-11-07T10:56:30.595Z,937.68
2022-11-07T10:57:30.603Z,937.66
2022-11-07T10:58:30.617Z,937.66
2022-11-07T10:59:35.817Z,937.67
2022-11-07T11:00:30.642Z,937.71
2022-11-07T11:01:30.802Z,937.68
2022-11-07T11:02:30.665Z,937.69
2022-11-07T11:03:43.095Z,937.69
2022-11-07T11:04:30.712Z,937.70
2022-11-07T11:05:30.702Z,937.72
2022-11-07T11:06:30.718Z,937.69
2022-11-07T11:07:30.727Z,937.73
2022-11-07T11:08:30.741Z,937.70
2022-11-07T11:09:30.753Z,937.74
2022-11-07T11:10:30.765Z,937.76
2022-11-07T11:11:30.780Z,937.78
2022-11-07T11:12:34.051Z,937.75
2022-11-07T11:13:30.804Z,937.80
2022-11-07T11:14:30.815Z,937.80
2022-11-07T11:15:35.500Z,937.80
2022-11-07T11:16:30.851Z,937.84
2022-11-07T11:17:30.944Z,937.86
2022-11-07T11:18:30.875Z,937.82
2022-11-07T11:19:30.878Z,937.86
2022-11-07T11:20:30.924Z,937.87
2022-11-07T11:21:30.906Z,937.88
2022-11-07T11:22:30.913Z,937.88
2022-11-07T11:23:30.926Z,937.84
2022-11-07T11:24:30.941Z,937.88
2022-11-07T11:25:30.950Z,937.87
2022-11-07T11:26:30.965Z,937.85
2022-11-07T11:27:30.978Z,937.86
2022-11-07T11:28:30.991Z,937.87
2022-11-07T11:29:34.324Z,937.87
2022-11-07T11:30:31.016Z,937.90
2022-11-07T11:31:31.025Z,937.85
2022-11-07T11:32:31.036Z,937.86
2022-11-07T11:33:31.049Z,937.84
2022-11-07T11:34:31.063Z,937.87
2022-11-07T11:35:31.076Z,937.83
2022-11-07T11:36:31.107Z,937.80
2022-11-07T11:37:31.097Z,937.80
2022-11-07T11:38:31.111Z,937.77
2022-11-07T11:39:31.126Z,937.80
2022-11-07T11:40:31.138Z,937.77
2022-11-07T11:41:31.148Z,937.81
2022-11-07T11:42:31.162Z,937.81
2022-11-07T11:43:31.175Z,937.86
2022-11-07T11:44:31.190Z,937.88
2022-11-07T11:45:31.200Z,937.96
2022-11-07T11:46:31.211Z,937.94
2022-11-07T11:47:34.495Z,937.94
2022-11-07T11:48:31.237Z,938.03
2022-11-07T11:49:31.245Z,937.98
2022-11-07T11:50:31.260Z,938.01
2022-11-07T11:51:31.273Z,938.01
2022-11-07T11:52:31.315Z,937.98
2022-11-07T11:53:31.297Z,937.98
2022-11-07T11:54:31.315Z,938.03
2022-11-07T11:55:31.322Z,938.05
2022-11-07T11:56:31.335Z,938.03
2022-11-07T11:57:31.346Z,938.05
2022-11-07T11:58:31.573Z,937.99
2022-11-07T11:59:31.373Z,937.96
2022-11-07T12:00:31.387Z,937.97
2022-11-07T12:01:31.397Z,937.92
2022-11-07T12:02:31.486Z,937.93
2022-11-07T12:03:31.420Z,937.93
2022-11-07T12:04:31.433Z,937.97
2022-11-07T12:05:31.451Z,937.99
2022-11-07T12:06:31.457Z,937.98
2022-11-07T12:07:31.473Z,938.04
2022-11-07T12:08:31.568Z,938.06
2022-11-07T12:09:31.493Z,938.04
2022-11-07T12:10:31.507Z,938.06
2022-11-07T12:11:31.519Z,938.08
2022-11-07T12:12:31.533Z,938.05
2022-11-07T12:13:31.547Z,938.08
2022-11-07T12:14:31.565Z,938.04
2022-11-07T12:15:31.570Z,938.10
2022-11-07T12:16:31.592Z,938.12
2022-11-07T12:17:31.592Z,938.11
2022-11-07T12:18:31.607Z,938.11
2022-11-07T12:19:31.820Z,938.10
2022-11-07T12:20:31.631Z,938.13
2022-11-07T12:21:31.641Z,938.07
2022-11-07T12:22:31.654Z,938.14
2022-11-07T12:23:31.667Z,938.09
2022-11-07T12:24:31.701Z,938.08
2022-11-07T12:25:31.696Z,938.07
2022-11-07T12:26:31.707Z,938.05
2022-11-07T12:27:31.721Z,938.00
2022-11-07T12:28:31.731Z,937.99